Weather observations for the past three days for
Whiteville, Columbus County Municipal Airport
Metric (Imperial)
Date Time (edt) Wind (kph) Vis. (km) Weather Sky Cond. Temperature (ºC) Relative Humidity Wind Chill (°C) Heat Index (°C) Pressure Precipitation (cm)
Air Dwpt 6 hour altimeter (cm) sea level (mb) 1 hr 3 hr 6 hr
Max. Min.
03 16:15 W 6 16.09 Fair CLR 20.4 3 32% 76.35 0.0
03 15:55 W 9 11.27 Fair CLR 20 3 33% 76.38 0.0
03 15:35 SW 11 16.09 Partly Cloudy SCT060 19.8 3.3 34% 76.38 0.0
03 15:15 W 11 16.09 Partly Cloudy SCT060 19.7 3.5 34% 76.4 0.0
03 14:55 NW 9 16.09 Fair CLR 19.4 3.2 34% 76.4 0.0
03 14:35 W 15 16.09 Fair CLR 19.3 3.6 36% 76.43 0.0
03 14:15 W 7 16.09 Fair CLR 18.9 3.3 36% 76.45 0.0
03 13:55 NW 11 16.09 Fair CLR 18.7 3.6 18.7 8.5 37% 76.48 0.0
03 13:35 NW 13 16.09 Fair CLR 18.5 3.9 38% 76.48 0.0
03 13:15 Calm 16.09 Fair CLR 17.6 2.4 36% 76.48 0.0
03 12:55 NW 17 16.09 Fair CLR 17.4 2 36% 76.53 0.0
03 12:35 NW 9 16.09 Fair CLR 16.8 2.7 39% 76.56 0.0
03 12:15 NW 11 16.09 Fair CLR 16.6 2 38% 76.56 0.0
03 11:55 Calm 16.09 Fair CLR 16 1.5 38% 76.58 0.0
03 11:35 NW 9 16.09 Fair CLR 15.6 1 37% 76.58 0.0
03 11:15 N 7 G 26 16.09 Fair CLR 15.2 1.9 41% 76.58 0.0
03 10:55 NW 17 16.09 Fair CLR 15.1 1.3 39% 76.56 0.0
03 10:35 N 13 16.09 Fair CLR 14.7 1.5 41% 76.56 0.0
03 10:15 N 17 16.09 Fair CLR 14.3 2.4 45% 76.56 0.0
03 09:55 N 13 G 26 16.09 Fair CLR 14 3.3 49% 76.56 0.0
03 09:35 N 7 16.09 Fair CLR 13.4 5 57% 76.53 0.0
03 09:15 N 7 16.09 Fair CLR 12.5 5.8 64% 76.56 0.0
03 08:55 N 7 16.09 Fair CLR 11.6 5.4 66% 76.56 0.0
03 08:35 N 7 16.09 Fair CLR 10.6 6.1 74% 76.53 0.0
03 08:15 N 6 16.09 Fair CLR 9.4 6.7 83% 76.5 0.0
03 07:55 N 6 16.09 Fair CLR 8.4 7.1 9.7 6.4 92% 76.48 0.0 0.05
03 07:35 N 6 16.09 Fair CLR 7.7 7 95% 76.48 0.0
03 07:15 Calm 16.09 Fair CLR 7.1 6.5 96% 76.45 0.0
03 06:55 Calm 11.27 Fair CLR 6.8 6.2 96% 76.4 0.0 0.03
03 06:35 Calm 8.05 Fog/Mist CLR 6.7 6.1 96% 76.38 0.0 0.03
03 06:15 Calm 4.83 Fog/Mist CLR 6.5 5.9 96% 76.35 0.0 0.03
03 05:35 Calm 1.21 Fog/Mist VV005 7.1 6.5 96% 76.33 0.0
03 05:15 Calm 4.02 Fog/Mist SCT002 7.1 6.4 95% 76.3 0.0
03 04:55 Calm 0.80 Fog BKN002 7.1 6.5 96% 76.3 0.0 0.03 0.03
03 04:35 Calm 1.61 Fog/Mist BKN002 7.6 6.9 95% 76.3 0.0 0.03
03 04:15 Calm 4.02 Fog/Mist CLR 8.1 7.3 95% 76.28 0.0 0.03
03 03:55 Calm 6.44 Fog/Mist CLR 8.3 7.6 95% 76.25 0.0
03 03:35 Calm 8.05 Fog/Mist CLR 8.2 7.5 95% 76.25 0.0
03 03:15 Calm 11.27 Fair CLR 8.5 7.7 95% 76.23 0.0
03 02:55 Calm 4.02 Fog/Mist SCT110 8.8 8 95% 76.23 0.0
03 02:35 Calm 2.41 Fog/Mist SCT110 9 8.1 94% 76.23 0.0
03 02:15 Calm 6.44 Fog/Mist CLR 9.2 8.5 95% 76.2 0.0
03 01:55 Calm 11.27 Fair CLR 9.8 9 11.8 9.5 95% 76.2 0.0
03 01:35 Calm 6.44 Fog/Mist CLR 9.5 8.6 94% 76.2 0.0
03 01:15 Calm 6.44 Fog/Mist CLR 9.8 9 95% 76.2 0.0
03 00:55 Calm 1.61 Fog/Mist VV007 9.9 9 94% 76.17 0.0
03 00:30 Calm 11.27 Partly Cloudy SCT003 10.5 9.6 94% 76.15 0.0
03 00:15 Calm 11.27 Partly Cloudy SCT003 10.7 9.7 94% 76.17 0.0
02 23:55 NW 6 11.27 Partly Cloudy SCT005 SCT120 10.9 9.8 93% 76.15 0.0
02 23:35 NW 6 16.09 Mostly Cloudy SCT005 BKN120 11.2 10.2 94% 76.12 0.0
02 23:15 Calm 16.09 Overcast SCT005 OVC120 11.5 10.4 93% 76.12 0.0
02 22:55 N 6 16.09 Overcast SCT005 OVC120 11.5 10.5 94% 76.12 0.0
02 22:35 N 6 16.09 Overcast BKN005 OVC110 11.6 10.6 94% 76.1 0.0
02 22:15 N 6 16.09 Overcast OVC110 11.6 10.5 93% 76.1 0.0
02 21:55 N 6 16.09 Overcast OVC110 11.5 10.4 93% 76.07 0.0
02 21:35 Calm 16.09 Overcast OVC110 11.6 10.5 93% 76.07 0.0
02 21:15 Calm 16.09 Overcast OVC100 11.6 10.5 93% 76.05 0.0
02 20:55 Calm 16.09 Overcast OVC100 11.6 10.5 93% 76.02 0.0
02 20:35 Calm 16.09 Overcast SCT007 SCT047 OVC100 11.5 10.5 94% 75.97 0.0
02 20:15 N 6 11.27 Overcast SCT007 BKN045 OVC100 11.6 10.5 93% 75.97 0.0
02 19:55 N 7 16.09 Light Rain BKN007 OVC013 11.8 10.6 13.9 11.7 92% 75.97 0.0 0.03 0.38
02 19:35 N 7 11.27 Overcast BKN007 OVC013 11.8 10.6 92% 75.95 0.0 0.03
02 19:15 N 9 16.09 Overcast OVC007 12 10.7 92% 75.92 0.0
02 18:55 N 9 11.27 Overcast OVC007 12.1 11 93% 75.92 0.0
02 18:35 N 11 11.27 Overcast OVC007 12.1 11 93% 75.92 0.0
02 18:15 N 7 8.05 Fog/Mist OVC005 12.4 11.2 92% 75.92 0.0
02 17:55 N 11 11.27 Overcast BKN007 OVC011 12.7 11.5 92% 75.9 0.0
02 17:35 N 7 6.44 Fog/Mist BKN007 OVC011 13.5 12.2 92% 75.9 0.0
02 17:15 N 7 6.44 Fog/Mist BKN007 BKN011 OVC024 13.8 12.5 92% 75.87 0.0
02 16:55 N 6 11.27 Overcast BKN009 BKN024 OVC060 13.7 12.4 92% 75.87 0.0 0.03 0.36
02 16:35 N 7 16.09 Overcast BKN008 BKN013 OVC024 13.6 12.4 93% 75.82 0.0 0.03
02 16:15 N 7 16.09 Overcast BKN006 BKN022 OVC060 13.5 12.2 92% 75.84 0.0 0.03
02 15:55 N 6 4.83 Light Rain BKN006 OVC010 13.7 12.5 93% 75.82 0.0 0.15
02 15:35 N 9 8.05 Light Rain BKN008 OVC014 13.6 12.5 93% 75.84 0.0 0.1
02 15:15 N 7 8.05 Light Rain BKN007 OVC010 13.5 12.4 93% 75.87 0.0 0.05
02 14:55 N 7 8.05 Light Rain OVC005 13.6 12.5 93% 75.87 0.0 0.18
02 14:35 NE 9 4.02 Light Rain BKN007 OVC013 13.4 12.2 93% 75.9 0.0 0.13
02 14:15 N 9 3.22 Light Rain BKN007 OVC018 13.5 12.2 92% 75.95 0.0 0.05
02 13:55 N 6 11.27 Light Rain SCT007 BKN018 OVC035 13.4 12.1 14 13.1 92% 75.9 0.0 0.08 0.64
02 13:35 N 9 11.27 Light Rain BKN009 BKN013 OVC034 13.3 12 92% 75.92 0.0 0.05
02 13:15 N 11 11.27 Light Rain BKN007 OVC013 13.2 12 93% 75.9 0.0 0.03
02 12:55 N 7 11.27 Light Rain OVC007 13.4 12.1 92% 75.9 0.0 0.08
02 12:35 N 9 8.05 Light Rain BKN007 OVC010 13.6 12.4 93% 75.95 0.0 0.05
02 12:15 N 9 8.05 Light Rain SCT007 OVC014 13.2 12 93% 75.97 0.0 0.03
02 11:55 N 7 6.44 Light Rain SCT007 BKN014 OVC032 13.1 12 93% 76 0.0 0.2
02 11:35 N 9 6.44 Rain BKN005 OVC011 13.3 12.1 93% 76 0.0 0.13
02 11:15 N 6 6.44 Light Rain OVC005 13.5 12.5 94% 75.97 0.0 0.08
02 10:55 Calm 4.83 Light Rain BKN007 OVC013 13.5 12.3 93% 75.97 0.0 0.25 0.28
02 10:35 N 9 4.83 Rain BKN007 OVC013 13.6 12.4 93% 76.02 0.0 0.13
02 10:15 N 7 6.44 Light Rain OVC009 13.8 12.5 92% 76 0.0 0.03
02 09:55 N 9 11.27 Overcast OVC007 13.6 12.5 93% 75.95 0.0
02 09:35 N 7 11.27 Overcast OVC007 13.5 12.5 94% 75.92 0.0
02 09:15 N 9 8.05 Fog/Mist OVC005 13.6 12.6 94% 75.87 0.0
02 08:55 N 9 11.27 Overcast OVC003 13.9 12.9 94% 75.9 0.0 0.03
02 08:35 NE 7 11.27 Overcast OVC003 14 13 94% 75.9 0.0 0.03
02 08:15 NE 7 8.05 Fog/Mist BKN003 OVC043 14 13.1 94% 75.92 0.0
02 07:55 N 7 8.05 Light Rain BKN003 OVC043 14 13 15.5 14 94% 75.95 0.0 0.15 0.66
02 07:35 N 6 6.44 Light Rain OVC003 14.1 13.1 94% 75.95 0.0 0.13
02 07:15 Calm 6.44 Light Rain OVC003 14.1 13.2 94% 75.95 0.0 0.08
02 06:55 N 6 8.05 Light Rain BKN003 OVC009 14.2 13.2 94% 75.92 0.0 0.15
02 06:35 Calm 11.27 Light Rain BKN003 BKN007 OVC015 14.1 13.1 94% 75.9 0.0 0.1
02 06:10 Calm 8.05 Light Rain SCT003 BKN007 OVC025 14.1 13.1 94% 75.9 0.0 0.05
02 05:55 Calm 4.83 Light Rain SCT003 BKN009 OVC023 14.2 13.1 93% 75.92 0.0 0.23
02 05:35 Calm 4.83 Light Rain SCT011 SCT025 OVC034 14.3 13.1 93% 75.92 0.0 0.13
02 05:15 Calm 11.27 Light Rain SCT025 BKN030 OVC037 14.3 13 92% 75.92 0.0 0.05
02 04:55 Calm 8.05 Light Rain BKN028 OVC037 14.3 12.6 90% 75.9 0.0 0.13 0.13
02 04:35 Calm 8.05 Light Rain SCT031 BKN050 OVC070 14.5 12.5 88% 75.92 0.0 0.05
02 04:15 Calm 16.09 Light Rain SCT060 OVC070 14.8 12.2 85% 75.9 0.0
02 03:55 Calm 11.27 Overcast OVC060 15.2 11.5 79% 75.87 0.0
02 03:35 Calm 16.09 Overcast SCT060 OVC070 15.1 11.2 78% 75.87 0.0
02 03:15 Calm 16.09 Overcast SCT033 OVC070 15.2 11.2 77% 75.87 0.0
02 02:50 Calm 16.09 Overcast BKN010 OVC033 15.5 11.2 76% 75.9 0.0
02 02:35 Calm 16.09 Overcast OVC010 15.5 11.1 75% 75.9 0.0
02 02:15 Calm 16.09 Overcast OVC010 15.3 11.5 78% 75.92 0.0
02 01:55 Calm 16.09 Overcast BKN014 OVC055 15.4 11.3 17.5 14.9 77% 75.95 0.0
02 01:35 Calm 16.09 Overcast SCT019 BKN055 OVC070 15.4 11.7 79% 75.95 0.0
02 01:15 Calm 16.09 Overcast BKN055 BKN070 OVC095 15 12 82% 75.95 0.0
02 00:55 Calm 16.09 Overcast OVC055 15.2 11.7 80% 75.95 0.0
02 00:35 Calm 16.09 Overcast BKN055 OVC110 15 12 82% 75.97 0.0
02 00:15 Calm 16.09 Overcast SCT055 OVC110 15 12.1 83% 75.97 0.0
01 23:55 Calm 16.09 Overcast SCT055 OVC120 15.1 12.1 82% 76 0.0
01 23:35 Calm 16.09 Mostly Cloudy SCT016 BKN120 15.4 12 80% 76 0.0
01 23:15 Calm 16.09 Partly Cloudy SCT120 15.2 12 81% 76 0.0
01 22:55 Calm 16.09 Fair CLR 15.6 11.5 77% 76 0.0
01 22:35 Calm 16.09 Fair CLR 16.1 11.2 73% 76 0.0
01 22:15 Calm 16.09 Partly Cloudy SCT022 16.5 11.5 72% 76.02 0.0
01 21:55 Calm 16.09 Overcast OVC024 16.6 11.5 72% 76.02 0.0
01 21:35 Calm 16.09 Overcast OVC024 16.7 11.5 72% 76.05 0.0
01 21:15 Calm 16.09 Overcast OVC024 16.8 11.5 71% 76.02 0.0
01 20:55 E 6 16.09 Overcast OVC024 17 11.6 71% 76.02 0.0
01 20:35 Calm 16.09 Overcast OVC024 17.2 11.6 70% 76.02 0.0
01 20:15 Calm 16.09 Overcast OVC024 17.3 12 71% 75.97 0.0
01 19:55 Calm 16.09 Mostly Cloudy BKN027 17.5 11.7 18.8 17.5 69% 75.97 0.0
01 19:35 Calm 16.09 Overcast OVC031 17.9 11.6 67% 76 0.0
01 19:15 Calm 16.09 Overcast OVC031 18.1 11.9 67% 75.97 0.0
01 18:55 E 6 16.09 Mostly Cloudy BKN033 18.5 11.7 65% 75.97 0.0
01 18:35 Calm 16.09 Mostly Cloudy SCT027 BKN095 18.5 11.6 64% 76 0.0
01 18:15 Calm 16.09 Mostly Cloudy SCT029 SCT034 BKN095 18.5 11.4 64% 76.02 0.0
01 17:55 Calm 16.09 Mostly Cloudy BKN029 BKN036 18.5 11.2 63% 76.02 0.0
01 17:35 E 9 16.09 Mostly Cloudy BKN029 BKN036 18.6 11.5 64% 76 0.0
01 17:15 E 9 16.09 Overcast OVC027 18.5 11.2 63% 76 0.0
01 16:55 E 9 16.09 Overcast OVC027 18.7 11.4 63% 76.02 0.0
01 16:35 E 7 16.09 Overcast OVC025 18.5 11.6 64% 76.02 0.0
01 16:15 E 7 16.09 Overcast OVC025 18.5 11.6 64% 76.05 0.0
01 15:50 SE 11 16.09 Overcast OVC027 18.6 11.5 64% 76.05 0.0
01 15:35 E 7 16.09 Overcast OVC025 18.7 11.7 64% 76.05 0.0
01 15:15 E 9 16.09 Overcast OVC025 18.2 11.5 65% 76.07 0.0
01 14:55 NE 7 16.09 Overcast OVC025 18 11.2 65% 76.07 0.0
01 14:35 E 6 16.09 Overcast BKN025 OVC100 17.9 11 64% 76.1 0.0
01 14:15 E 9 16.09 Mostly Cloudy SCT027 SCT055 BKN100 17.7 10.5 63% 76.12 0.0
01 13:55 E 7 16.09 Mostly Cloudy SCT027 SCT055 BKN110 17.6 10.1 17.9 14 62% 76.12 0.0
01 13:35 Calm 16.09 Partly Cloudy SCT055 SCT110 17.6 9.8 60% 76.15 0.0
01 13:15 E 13 16.09 Fair CLR 17.7 9.7 60% 76.12 0.0
01 12:55 E 13 16.09 Fair CLR 17.4 8.8 57% 76.15 0.0
01 12:35 NE 19 16.09 Fair CLR 17.3 8.2 55% 76.15 0.0
01 12:15 E 11 16.09 Fair CLR 16.6 7.2 54% 76.17 0.0
01 11:55 NE 9 16.09 Fair CLR 16.3 6.4 52% 76.17 0.0
01 11:35 NE 15 16.09 Fair CLR 16.1 5.9 51% 76.17 0.0
01 11:15 E 9 16.09 Fair CLR 15.9 5.2 49% 76.2 0.0
01 10:55 NE 13 16.09 Fair CLR 15.7 5.5 51% 76.2 0.0
01 10:35 NE 13 16.09 Partly Cloudy SCT050 15.7 5.9 52% 76.2 0.0
01 10:15 NE 11 16.09 Partly Cloudy SCT050 SCT065 15.6 5.1 50% 76.2 0.0
01 09:55 NE 15 16.09 Fair CLR 15.7 5 49% 76.15 0.0
01 09:35 NE 15 G 26 16.09 Fair CLR 15.6 4.9 49% 76.15 0.0
01 09:15 NE 11 G 28 16.09 Fair CLR 15.4 4.6 49% 76.15 0.0
01 08:55 NE 15 16.09 Fair CLR 14.7 4.5 51% 76.15 0.0
01 08:35 NE 9 16.09 Fair CLR 14.8 5.1 52% 76.15 0.0
01 08:15 NE 9 16.09 Fair CLR 14.5 5.4 55% 76.15 0.0
01 07:55 NE 7 16.09 Partly Cloudy SCT035 14 5.3 16 13.5 56% 76.17 0.0
01 07:35 NE 7 16.09 Overcast OVC035 13.8 5.4 57% 76.15 0.0
01 07:15 NE 7 16.09 Overcast OVC035 13.8 5.2 56% 76.15 0.0
01 06:55 NE 11 16.09 Overcast OVC035 14 5.4 56% 76.15 0.0
01 06:35 NE 9 16.09 Overcast OVC035 14 5.6 57% 76.12 0.0
01 06:15 NE 7 16.09 Overcast OVC035 14.2 5.9 58% 76.1 0.0
01 05:55 NE 13 16.09 Mostly Cloudy SCT033 SCT060 BKN070 14.1 6.9 62% 76.05 0.0
01 05:35 N 11 16.09 Mostly Cloudy SCT034 BKN060 14.5 7 61% 76.05 0.0
01 04:55 NE 7 16.09 Overcast BKN032 OVC050 15.7 8.9 64% 76.05 0.0
01 04:35 N 7 16.09 Overcast SCT029 BKN036 OVC070 15.7 10.4 71% 76.02 0.0
01 04:15 N 11 16.09 Overcast BKN025 OVC035 16 11.7 76% 76 0.0
01 03:55 Calm 16.09 Overcast BKN023 OVC070 15.7 14 90% 76 0.0
01 03:35 N 6 16.09 Overcast SCT023 OVC070 15.1 14 93% 75.97 0.0
01 03:15 Calm 16.09 Overcast OVC070 14.2 13.2 94% 75.92 0.0
01 02:55 Calm 16.09 Overcast OVC070 14 13 94% 75.92 0.0
01 02:35 Calm 16.09 Overcast OVC085 13.6 12.6 94% 75.92 0.0
01 02:15 Calm 16.09 Overcast SCT055 OVC085 13.8 12.7 93% 75.95 0.0
01 01:55 Calm 16.09 Partly Cloudy SCT055 SCT085 SCT110 13.8 12.7 19 13.2 93% 75.95 0.0
01 01:35 Calm 16.09 Partly Cloudy SCT100 13.2 12.2 94% 75.97 0.0
01 01:15 Calm 16.09 Mostly Cloudy BKN100 13.8 12.7 93% 75.97 0.0
01 00:55 Calm 16.09 Fair CLR 13.8 12.7 93% 75.95 0.0
01 00:35 Calm 16.09 Fair CLR 14.3 13.2 93% 75.95 0.0
01 00:15 Calm 16.09 Fair CLR 13.8 12.5 92% 75.95 0.0
30 23:55 Calm 16.09 Fair CLR 15.1 13.6 91% 75.95 0.0
30 23:35 Calm 16.09 Fair CLR 15 13.4 90% 75.92 0.0
30 23:15 Calm 16.09 Fair CLR 15.5 13.9 90% 75.92 0.0
30 22:55 Calm 16.09 Partly Cloudy SCT055 15.3 13.9 91% 75.92 0.0
30 22:35 Calm 16.09 Fair CLR 14.6 12.9 90% 75.92 0.0
30 22:15 Calm 16.09 Fair CLR 15.4 13.1 86% 75.92 0.0
30 21:55 Calm 16.09 Fair CLR 16 13 83% 75.9 0.0
30 21:35 Calm 16.09 Fair CLR 15.8 13.1 84% 75.87 0.0
30 21:15 Calm 16.09 Fair CLR 16.3 13.5 84% 75.87 0.0
30 20:55 Calm 16.09 Fair CLR 16.5 13.5 83% 75.82 0.0
30 20:35 Calm 16.09 Fair CLR 17.3 13.5 79% 75.82 0.0
30 20:15 Calm 16.09 Fair CLR 18.4 13.5 73% 75.79 0.0
30 19:55 Calm 16.09 Fair CLR 19 13.4 23.3 19 70% 75.77 0.0
30 19:35 Calm 16.09 Fair CLR 20.5 12.6 61% 75.77 0.0
30 19:15 Calm 16.09 Fair CLR 21.8 11.7 53% 75.77 0.0
30 18:55 Calm 16.09 Fair CLR 22.5 11.4 50% 75.74 0.0
30 18:35 Calm 16.09 Fair CLR 22.7 11.6 50% 75.74 0.0
30 18:15 Calm 16.09 Partly Cloudy SCT046 23 11.4 48% 75.74 0.0
30 17:55 W 6 16.09 Partly Cloudy SCT041 22.7 11.4 49% 75.72 0.0
30 17:35 Calm 16.09 Partly Cloudy SCT041 22.7 11.5 49% 75.74 0.0
30 17:15 Calm 16.09 Partly Cloudy SCT041 23.1 11.7 49% 75.72 0.0
30 16:55 Calm 16.09 Partly Cloudy SCT041 23.1 11.8 49% 75.72 0.0
30 16:35 Calm 16.09 Fair CLR 22.8 11.7 50% 75.74 0.0
Date Time (edt) Wind (kph) Vis. (km) Weather Sky Cond. Air Dwpt Max. Min. Relative Humidity Wind Chill (°C) Heat Index (°C) altimeter (cm) sea level (mb) 1 hr 3 hr 6 hr
6 hour
Temperature (ºC) Pressure Precipitation (cm)